createdAt,value
2018-12-29T00:01:08.684Z,42.73
2018-12-29T00:03:37.171Z,39.97
2018-12-29T00:06:05.866Z,41.30
2018-12-29T00:08:34.642Z,41.07
2018-12-29T00:11:03.230Z,43.40
2018-12-29T00:13:31.927Z,40.73
2018-12-29T00:16:00.584Z,38.43
2018-12-29T00:18:28.855Z,39.83
2018-12-29T00:20:57.627Z,41.13
2018-12-29T00:23:26.126Z,40.40
2018-12-29T00:25:54.505Z,38.90
2018-12-29T00:28:22.781Z,38.27
2018-12-29T00:30:51.063Z,40.90
2018-12-29T00:33:19.529Z,40.67
2018-12-29T00:35:48.209Z,41.57
2018-12-29T00:38:16.602Z,38.13
2018-12-29T00:40:45.185Z,38.57
2018-12-29T00:43:13.890Z,37.87
2018-12-29T00:45:42.557Z,39.57
2018-12-29T00:48:11.964Z,37.80
2018-12-29T00:50:41.385Z,37.93
2018-12-29T00:53:10.045Z,38.40
2018-12-29T00:55:38.319Z,39.03
2018-12-29T00:58:07.074Z,35.90
2018-12-29T01:00:35.689Z,36.87
2018-12-29T01:03:04.380Z,35.40
2018-12-29T01:05:33.094Z,35.87
2018-12-29T01:08:01.542Z,35.27
2018-12-29T01:10:30.226Z,33.93
2018-12-29T01:12:58.523Z,33.77
2018-12-29T01:15:27.195Z,33.07
2018-12-29T01:17:55.873Z,32.67
2018-12-29T01:20:25.414Z,32.00
2018-12-29T01:22:54.058Z,31.30
2018-12-29T01:25:23.371Z,29.83
2018-12-29T01:27:52.063Z,31.07
2018-12-29T01:30:20.744Z,30.47
2018-12-29T01:32:48.810Z,27.77
2018-12-29T01:35:17.504Z,29.70
2018-12-29T01:37:46.178Z,30.33
2018-12-29T01:40:14.869Z,28.83
2018-12-29T01:42:43.565Z,28.37
2018-12-29T01:45:17.453Z,29.37
2018-12-29T01:47:41.898Z,28.60
2018-12-29T01:50:16.602Z,27.57
2018-12-29T01:52:45.257Z,28.63
2018-12-29T01:55:13.964Z,26.80
2018-12-29T01:57:42.249Z,27.27
2018-12-29T02:00:10.925Z,26.77
2018-12-29T02:02:39.599Z,27.43
2018-12-29T02:05:11.500Z,27.77
2018-12-29T02:07:40.037Z,27.90
2018-12-29T02:10:08.730Z,29.50
2018-12-29T02:12:37.030Z,25.90
2018-12-29T02:15:05.505Z,27.03
2018-12-29T02:17:34.162Z,26.77
2018-12-29T02:20:02.962Z,26.87
2018-12-29T02:22:31.543Z,24.97
2018-12-29T02:24:59.917Z,25.90
2018-12-29T02:27:28.518Z,25.73
2018-12-29T02:29:57.187Z,25.50
2018-12-29T02:32:25.869Z,24.43
2018-12-29T02:34:54.569Z,23.73
2018-12-29T02:37:22.818Z,24.67
2018-12-29T02:39:51.520Z,24.33
2018-12-29T02:42:20.410Z,22.83
2018-12-29T02:44:49.093Z,23.27
2018-12-29T02:47:18.179Z,23.30
2018-12-29T02:49:46.577Z,22.27
2018-12-29T02:52:15.159Z,22.47
2018-12-29T02:54:43.830Z,21.97
2018-12-29T02:57:12.543Z,20.97
2018-12-29T02:59:41.206Z,21.07
2018-12-29T03:02:09.490Z,21.20
2018-12-29T03:04:38.199Z,21.33
2018-12-29T03:07:06.855Z,20.80
2018-12-29T03:09:36.258Z,21.30
2018-12-29T03:12:04.862Z,21.07
2018-12-29T03:14:33.533Z,20.63
2018-12-29T03:17:02.019Z,21.00
2018-12-29T03:19:30.718Z,20.23
2018-12-29T03:21:59.377Z,20.57
2018-12-29T03:24:28.071Z,20.20
2018-12-29T03:26:56.778Z,20.00
2018-12-29T03:29:25.444Z,19.40
2018-12-29T03:31:54.379Z,19.70
2018-12-29T03:34:27.620Z,19.40
2018-12-29T03:36:56.418Z,18.20
2018-12-29T03:39:24.692Z,18.37
2018-12-29T03:41:52.972Z,19.47
2018-12-29T03:44:22.060Z,18.70
2018-12-29T03:46:50.743Z,19.17
2018-12-29T03:49:19.453Z,20.27
2018-12-29T03:51:47.709Z,19.03
2018-12-29T03:54:16.191Z,20.17
2018-12-29T03:56:44.870Z,22.03
2018-12-29T03:59:13.558Z,22.20
2018-12-29T04:01:41.833Z,23.07
2018-12-29T04:04:10.528Z,21.93
2018-12-29T04:06:39.591Z,22.50
2018-12-29T04:09:35.568Z,20.77
2018-12-29T04:12:19.181Z,20.90
2018-12-29T04:14:47.579Z,20.47
2018-12-29T04:17:16.123Z,21.10
2018-12-29T04:19:45.207Z,20.27
2018-12-29T04:22:13.509Z,19.93
2018-12-29T04:24:42.174Z,19.83
2018-12-29T04:27:11.578Z,20.87
2018-12-29T04:29:40.185Z,19.57
2018-12-29T04:32:08.868Z,20.33
2018-12-29T04:34:37.115Z,18.87
2018-12-29T04:37:06.206Z,19.23
2018-12-29T04:39:34.909Z,18.87
2018-12-29T04:42:03.585Z,20.03
2018-12-29T04:44:32.263Z,19.60
2018-12-29T04:47:00.571Z,20.40
2018-12-29T04:49:29.021Z,22.13
2018-12-29T04:51:57.763Z,21.73
2018-12-29T04:54:26.390Z,20.37
2018-12-29T04:56:55.090Z,21.07
2018-12-29T04:59:23.837Z,22.13
2018-12-29T05:01:52.679Z,21.10
2018-12-29T05:04:21.150Z,21.77
2018-12-29T05:06:49.455Z,22.43
2018-12-29T05:09:18.102Z,21.20
2018-12-29T05:11:46.788Z,21.57
2018-12-29T05:14:15.509Z,20.90
2018-12-29T05:16:44.149Z,20.03
2018-12-29T05:19:12.845Z,19.70
2018-12-29T05:21:41.851Z,20.17
2018-12-29T05:24:10.321Z,19.40
2018-12-29T05:26:38.907Z,20.53
2018-12-29T05:29:07.408Z,20.70
2018-12-29T05:31:35.773Z,22.23
2018-12-29T05:34:04.345Z,23.60
2018-12-29T05:36:33.044Z,22.27
2018-12-29T05:39:01.732Z,25.17
2018-12-29T05:41:30.398Z,25.20
2018-12-29T05:43:59.110Z,24.60
2018-12-29T05:46:27.777Z,26.30
2018-12-29T05:48:56.458Z,26.77
2018-12-29T05:51:25.174Z,24.47
2018-12-29T05:53:53.534Z,25.67
2018-12-29T05:56:22.113Z,26.80
2018-12-29T05:58:50.515Z,26.83
2018-12-29T06:01:18.985Z,25.00
2018-12-29T06:03:47.564Z,25.30
2018-12-29T06:06:16.248Z,25.90
2018-12-29T06:08:44.612Z,25.10
2018-12-29T06:11:13.392Z,23.17
2018-12-29T06:13:42.118Z,24.47
2018-12-29T06:16:10.775Z,22.63
2018-12-29T06:18:39.026Z,24.00
2018-12-29T06:21:07.767Z,24.50
2018-12-29T06:23:36.418Z,24.53
2018-12-29T06:26:04.683Z,25.33
2018-12-29T06:28:33.390Z,25.50
2018-12-29T06:31:02.061Z,28.90
2018-12-29T06:33:31.345Z,25.37
2018-12-29T06:36:00.062Z,26.33
2018-12-29T06:38:28.731Z,30.73
2018-12-29T06:40:57.418Z,26.30
2018-12-29T06:43:26.127Z,28.27
2018-12-29T06:45:54.365Z,26.03
2018-12-29T06:48:23.097Z,29.27
2018-12-29T06:50:51.789Z,27.53
2018-12-29T06:53:20.509Z,26.00
2018-12-29T06:55:49.114Z,27.47
2018-12-29T06:58:17.837Z,28.00
2018-12-29T07:00:46.089Z,28.47
2018-12-29T07:03:14.763Z,26.23
2018-12-29T07:05:43.474Z,25.27
2018-12-29T07:08:12.451Z,26.30
2018-12-29T07:10:41.043Z,24.37
2018-12-29T07:13:09.726Z,22.90
2018-12-29T07:15:38.382Z,24.17
2018-12-29T07:18:07.078Z,24.20
2018-12-29T07:20:35.784Z,21.97
2018-12-29T07:23:04.465Z,26.90
2018-12-29T07:25:32.722Z,22.00
2018-12-29T07:28:04.401Z,22.07
2018-12-29T07:30:32.964Z,25.47
2018-12-29T07:33:01.460Z,23.97
2018-12-29T07:35:30.146Z,23.60
2018-12-29T07:37:58.405Z,22.93
2018-12-29T07:40:27.093Z,21.93
2018-12-29T07:42:55.818Z,23.07
2018-12-29T07:45:24.458Z,21.03
2018-12-29T07:47:52.953Z,21.77
2018-12-29T07:50:21.655Z,21.17
2018-12-29T07:52:49.894Z,21.27
2018-12-29T07:55:18.596Z,20.87
2018-12-29T07:57:46.898Z,21.03
2018-12-29T08:00:15.349Z,21.60
2018-12-29T08:02:43.725Z,21.93
2018-12-29T08:05:12.334Z,21.27
2018-12-29T08:07:40.995Z,21.97
2018-12-29T08:10:09.283Z,20.90
2018-12-29T08:12:37.991Z,21.33
2018-12-29T08:15:12.093Z,21.80
2018-12-29T08:17:41.085Z,22.80
2018-12-29T08:20:11.919Z,22.47
2018-12-29T08:22:41.741Z,24.77
2018-12-29T08:25:09.989Z,22.83
2018-12-29T08:27:38.678Z,23.20
2018-12-29T08:30:07.432Z,25.63
2018-12-29T08:32:36.055Z,25.47
2018-12-29T08:35:05.585Z,24.20
2018-12-29T08:37:33.983Z,22.83
2018-12-29T08:40:02.349Z,28.50
2018-12-29T08:42:43.630Z,32.30
2018-12-29T08:45:21.548Z,25.93
2018-12-29T08:47:50.891Z,23.13
2018-12-29T08:50:27.811Z,24.50
2018-12-29T08:53:00.903Z,25.43
2018-12-29T08:55:31.514Z,26.33
2018-12-29T08:58:07.500Z,28.30
2018-12-29T09:00:37.243Z,26.00
2018-12-29T09:03:05.849Z,26.87
2018-12-29T09:05:38.841Z,24.67
2018-12-29T09:08:27.645Z,24.00
2018-12-29T09:11:12.118Z,26.70
2018-12-29T09:13:57.417Z,25.70
2018-12-29T09:16:38.264Z,24.53
2018-12-29T09:19:18.392Z,25.27
2018-12-29T09:22:04.846Z,23.43
2018-12-29T09:25:01.566Z,23.57
2018-12-29T09:27:39.390Z,24.20
2018-12-29T09:30:20.552Z,25.07
2018-12-29T09:33:06.982Z,23.97
2018-12-29T09:35:56.349Z,25.50
2018-12-29T09:38:34.318Z,26.10
2018-12-29T09:41:08.501Z,25.43
2018-12-29T09:43:49.915Z,25.47
2018-12-29T09:46:31.651Z,25.40
2018-12-29T09:49:27.618Z,25.07
2018-12-29T09:52:01.810Z,26.43
2018-12-29T09:54:51.378Z,24.23
2018-12-29T09:57:33.014Z,23.27
2018-12-29T10:00:20.478Z,25.40
2018-12-29T10:02:58.512Z,24.40
2018-12-29T10:05:46.499Z,24.63
2018-12-29T10:08:28.036Z,24.73
2018-12-29T10:10:58.637Z,24.23
2018-12-29T10:13:27.082Z,45.33
2018-12-29T10:15:55.807Z,35.83
2018-12-29T10:18:24.501Z,29.00
2018-12-29T10:20:53.227Z,26.17
2018-12-29T10:23:21.566Z,27.60
2018-12-29T10:25:50.570Z,40.23
2018-12-29T10:28:19.708Z,34.73
2018-12-29T10:30:48.326Z,41.33
2018-12-29T10:33:16.828Z,27.27
2018-12-29T10:35:45.504Z,26.23
2018-12-29T10:38:13.895Z,29.50
2018-12-29T10:40:42.355Z,26.50
2018-12-29T10:43:11.172Z,26.40
2018-12-29T10:45:39.867Z,25.50
2018-12-29T10:48:08.527Z,26.13
2018-12-29T10:50:37.425Z,31.00
2018-12-29T10:53:05.902Z,30.00
2018-12-29T10:55:34.269Z,29.67
2018-12-29T10:58:02.871Z,33.93
2018-12-29T11:00:35.173Z,34.00
2018-12-29T11:03:02.282Z,33.13
2018-12-29T11:05:30.657Z,28.97
2018-12-29T11:08:00.053Z,28.10
2018-12-29T11:10:28.784Z,27.80
2018-12-29T11:12:57.221Z,33.37
2018-12-29T11:15:26.026Z,32.90
2018-12-29T11:17:54.816Z,30.73
2018-12-29T11:20:23.483Z,27.93
2018-12-29T11:22:52.214Z,28.77
2018-12-29T11:25:26.567Z,34.50
2018-12-29T11:27:57.297Z,32.47
2018-12-29T11:30:25.825Z,30.43
2018-12-29T11:32:54.289Z,30.73
2018-12-29T11:35:28.758Z,31.77
2018-12-29T11:37:53.528Z,32.57
2018-12-29T11:40:21.979Z,35.60
2018-12-29T11:42:50.445Z,34.10
2018-12-29T11:45:19.163Z,33.00
2018-12-29T11:47:49.935Z,37.57
2018-12-29T11:50:18.179Z,34.93
2018-12-29T11:52:46.667Z,35.30
2018-12-29T11:55:15.977Z,35.97
2018-12-29T11:57:45.030Z,36.67
2018-12-29T12:00:13.983Z,35.17
2018-12-29T12:02:43.029Z,31.30
2018-12-29T12:05:12.078Z,34.83
2018-12-29T12:07:41.460Z,38.57
2018-12-29T12:10:10.569Z,33.17
2018-12-29T12:12:39.083Z,32.50
2018-12-29T12:15:07.709Z,36.03
2018-12-29T12:17:36.340Z,34.63
2018-12-29T12:20:05.026Z,31.77
2018-12-29T12:22:34.125Z,36.27
2018-12-29T12:25:02.723Z,35.93
2018-12-29T12:27:31.497Z,32.70
2018-12-29T12:30:00.788Z,28.43
2018-12-29T12:32:29.198Z,30.33
2018-12-29T12:34:57.948Z,32.50
2018-12-29T12:37:26.499Z,31.83
2018-12-29T12:39:55.592Z,33.30
2018-12-29T12:42:24.584Z,40.50
2018-12-29T12:44:53.330Z,37.63
2018-12-29T12:47:22.005Z,47.60
2018-12-29T12:49:50.683Z,40.17
2018-12-29T12:52:19.070Z,36.77
2018-12-29T12:54:48.674Z,35.10
2018-12-29T12:57:17.555Z,33.50
2018-12-29T12:59:47.722Z,32.10
2018-12-29T13:02:16.215Z,31.73
2018-12-29T13:04:45.189Z,31.83
2018-12-29T13:07:13.713Z,30.70
2018-12-29T13:09:43.078Z,29.97
2018-12-29T13:12:11.859Z,26.53
2018-12-29T13:14:42.189Z,27.43
2018-12-29T13:17:11.158Z,26.07
2018-12-29T13:19:40.106Z,26.87
2018-12-29T13:22:09.029Z,24.80
2018-12-29T13:24:37.504Z,25.80
2018-12-29T13:27:06.064Z,25.20
2018-12-29T13:29:34.818Z,27.13
2018-12-29T13:32:03.657Z,26.37
2018-12-29T13:34:33.258Z,26.13
2018-12-29T13:37:01.723Z,24.93
2018-12-29T13:39:30.122Z,25.67
2018-12-29T13:41:58.816Z,24.87
2018-12-29T13:44:27.326Z,25.83
2018-12-29T13:46:56.052Z,24.83
2018-12-29T13:49:24.675Z,26.10
2018-12-29T13:51:53.442Z,24.53
2018-12-29T13:54:22.070Z,24.70
2018-12-29T13:56:50.635Z,24.97
2018-12-29T13:59:18.957Z,25.30
2018-12-29T14:01:47.510Z,27.33
2018-12-29T14:04:16.569Z,26.93
2018-12-29T14:06:45.280Z,24.30
2018-12-29T14:09:13.962Z,24.60
2018-12-29T14:11:42.639Z,22.67
2018-12-29T14:14:11.358Z,23.13
2018-12-29T14:16:40.213Z,25.03
2018-12-29T14:19:08.882Z,27.23
2018-12-29T14:21:37.589Z,30.20
2018-12-29T14:24:12.735Z,28.90
2018-12-29T14:26:42.569Z,28.97
2018-12-29T14:29:11.205Z,28.67
2018-12-29T14:31:39.876Z,29.27
2018-12-29T14:34:08.596Z,30.23
2018-12-29T14:36:37.458Z,28.37
2018-12-29T14:39:07.204Z,28.13
2018-12-29T14:41:35.901Z,28.60
2018-12-29T14:44:04.567Z,27.67
2018-12-29T14:46:33.235Z,26.73
2018-12-29T14:49:01.521Z,26.63
2018-12-29T14:51:30.423Z,28.00
2018-12-29T14:53:58.894Z,26.90
2018-12-29T14:56:28.328Z,27.17
2018-12-29T14:58:56.905Z,27.23
2018-12-29T15:01:25.742Z,26.37
2018-12-29T15:03:54.838Z,28.57
2018-12-29T15:06:23.548Z,29.17
2018-12-29T15:08:52.453Z,29.23
2018-12-29T15:11:20.921Z,31.67
2018-12-29T15:13:49.635Z,33.27
2018-12-29T15:16:18.113Z,32.70
2018-12-29T15:18:46.994Z,32.07
2018-12-29T15:21:15.663Z,31.07
2018-12-29T15:23:44.172Z,29.50
2018-12-29T15:26:13.099Z,29.13
2018-12-29T15:28:41.710Z,28.17
2018-12-29T15:31:10.507Z,27.77
2018-12-29T15:33:39.101Z,27.37
2018-12-29T15:36:07.758Z,27.40
2018-12-29T15:38:36.446Z,29.00
2018-12-29T15:41:04.957Z,27.10
2018-12-29T15:43:33.631Z,25.83
2018-12-29T15:46:02.091Z,27.20
2018-12-29T15:48:31.229Z,26.57
2018-12-29T15:50:59.868Z,29.17
2018-12-29T15:53:28.570Z,25.73
2018-12-29T15:55:56.974Z,24.47
2018-12-29T15:58:25.714Z,23.00
2018-12-29T16:00:54.401Z,23.60
2018-12-29T16:03:23.110Z,23.30
2018-12-29T16:05:52.018Z,24.43
2018-12-29T16:08:20.946Z,24.00
2018-12-29T16:10:49.490Z,24.90
2018-12-29T16:13:18.099Z,23.97
2018-12-29T16:15:46.674Z,25.60
2018-12-29T16:18:15.573Z,30.40
2018-12-29T16:20:44.528Z,26.97
2018-12-29T16:23:12.788Z,23.77
2018-12-29T16:25:41.493Z,23.67
2018-12-29T16:28:10.194Z,23.73
2018-12-29T16:30:38.845Z,22.93
2018-12-29T16:33:07.558Z,24.37
2018-12-29T16:35:36.224Z,22.97
2018-12-29T16:38:05.521Z,23.63
2018-12-29T16:40:34.225Z,24.17
2018-12-29T16:43:02.881Z,26.47
2018-12-29T16:45:31.260Z,24.63
2018-12-29T16:47:59.878Z,24.50
2018-12-29T16:50:28.526Z,26.27
2018-12-29T16:52:56.801Z,25.70
2018-12-29T16:55:25.305Z,27.00
2018-12-29T16:57:54.933Z,25.13
2018-12-29T17:00:24.832Z,25.17
2018-12-29T17:02:53.849Z,25.87
2018-12-29T17:05:23.585Z,27.13
2018-12-29T17:07:54.778Z,25.30
2018-12-29T17:10:24.697Z,24.60
2018-12-29T17:12:53.508Z,26.97
2018-12-29T17:15:23.918Z,27.67
2018-12-29T17:17:53.270Z,27.10
2018-12-29T17:20:22.047Z,26.67
2018-12-29T17:22:50.885Z,26.57
2018-12-29T17:25:19.150Z,28.50
2018-12-29T17:27:47.845Z,31.10
2018-12-29T17:30:16.626Z,28.50
2018-12-29T17:32:45.409Z,28.87
2018-12-29T17:35:14.026Z,26.70
2018-12-29T17:37:42.803Z,28.63
2018-12-29T17:40:11.465Z,28.73
2018-12-29T17:42:39.734Z,26.93
2018-12-29T17:45:08.670Z,26.80
2018-12-29T17:47:38.129Z,30.63
2018-12-29T17:50:06.715Z,30.47
2018-12-29T17:52:35.318Z,32.07
2018-12-29T17:55:03.943Z,31.50
2018-12-29T17:57:32.943Z,29.23
2018-12-29T18:00:01.598Z,31.67
2018-12-29T18:02:30.301Z,32.93
2018-12-29T18:04:58.736Z,41.90
2018-12-29T18:07:27.638Z,36.57
2018-12-29T18:09:57.307Z,34.33
2018-12-29T18:12:25.807Z,37.40
2018-12-29T18:14:54.562Z,37.13
2018-12-29T18:17:23.374Z,35.53
2018-12-29T18:19:51.869Z,34.57
2018-12-29T18:22:20.554Z,34.07
2018-12-29T18:24:49.682Z,36.40
2018-12-29T18:27:18.361Z,32.93
2018-12-29T18:29:46.839Z,34.93
2018-12-29T18:32:15.168Z,37.37
2018-12-29T18:34:43.690Z,35.30
2018-12-29T18:37:13.100Z,33.17
2018-12-29T18:39:41.757Z,40.57
2018-12-29T18:42:10.859Z,38.60
2018-12-29T18:44:39.716Z,38.80
2018-12-29T18:47:13.878Z,37.57
2018-12-29T18:49:49.677Z,39.40
2018-12-29T18:52:21.294Z,39.90
2018-12-29T18:54:51.272Z,37.33
2018-12-29T18:57:26.157Z,40.03
2018-12-29T18:59:59.530Z,38.37
2018-12-29T19:02:32.457Z,39.17
2018-12-29T19:05:05.531Z,38.67
2018-12-29T19:07:40.312Z,37.17
2018-12-29T19:10:17.498Z,38.07
2018-12-29T19:13:03.701Z,35.87
2018-12-29T19:15:37.755Z,38.77
2018-12-29T19:18:18.236Z,36.73
2018-12-29T19:20:48.299Z,36.63
2018-12-29T19:23:30.085Z,36.97
2018-12-29T19:26:00.295Z,35.00
2018-12-29T19:28:48.156Z,34.70
2018-12-29T19:31:23.689Z,35.27
2018-12-29T19:33:53.380Z,33.60
2018-12-29T19:36:22.248Z,33.23
2018-12-29T19:38:50.886Z,33.07
2018-12-29T19:41:19.469Z,34.97
2018-12-29T19:43:49.487Z,35.47
2018-12-29T19:46:18.357Z,34.70
2018-12-29T19:48:47.142Z,33.37
2018-12-29T19:51:17.914Z,36.87
2018-12-29T19:53:47.396Z,37.20
2018-12-29T19:56:16.265Z,34.17
2018-12-29T19:58:53.351Z,33.37
2018-12-29T20:01:23.250Z,33.87
2018-12-29T20:03:52.975Z,31.77
2018-12-29T20:06:21.342Z,29.63
2018-12-29T20:08:50.010Z,32.57
2018-12-29T20:11:18.645Z,32.47
2018-12-29T20:13:47.295Z,31.37
2018-12-29T20:16:15.769Z,33.87
2018-12-29T20:18:45.789Z,31.00
2018-12-29T20:21:14.389Z,28.97
2018-12-29T20:23:43.066Z,31.00
2018-12-29T20:26:11.784Z,38.10
2018-12-29T20:28:41.856Z,36.17
2018-12-29T20:31:10.445Z,34.70
2018-12-29T20:33:38.857Z,33.63
2018-12-29T20:36:07.507Z,37.07
2018-12-29T20:38:35.986Z,36.83
2018-12-29T20:41:04.398Z,33.77
2018-12-29T20:43:33.057Z,32.77
2018-12-29T20:46:01.638Z,33.13
2018-12-29T20:48:30.443Z,31.13
2018-12-29T20:50:59.003Z,30.93
2018-12-29T20:53:27.390Z,30.07
2018-12-29T20:55:55.987Z,28.83
2018-12-29T20:58:24.657Z,27.47
2018-12-29T21:00:53.538Z,28.43
2018-12-29T21:03:22.238Z,32.53
2018-12-29T21:05:50.513Z,33.90
2018-12-29T21:08:18.989Z,34.30
2018-12-29T21:10:47.312Z,32.63
2018-12-29T21:13:16.969Z,32.47
2018-12-29T21:15:45.659Z,36.30
2018-12-29T21:18:14.574Z,35.43
2018-12-29T21:20:45.933Z,37.83
2018-12-29T21:23:14.830Z,37.60
2018-12-29T21:25:43.452Z,36.43
2018-12-29T21:28:12.261Z,35.57
2018-12-29T21:30:40.774Z,35.67
2018-12-29T21:33:09.528Z,35.93
2018-12-29T21:35:38.233Z,33.73
2018-12-29T21:38:08.799Z,33.87
2018-12-29T21:40:37.425Z,31.60
2018-12-29T21:43:05.485Z,31.83
2018-12-29T21:45:33.898Z,31.20
2018-12-29T21:48:02.672Z,29.40
2018-12-29T21:50:31.367Z,30.80
2018-12-29T21:53:00.054Z,29.70
2018-12-29T21:55:28.829Z,30.20
2018-12-29T21:57:57.522Z,28.40
2018-12-29T22:00:26.517Z,30.83
2018-12-29T22:02:54.991Z,30.10
2018-12-29T22:05:24.076Z,28.47
2018-12-29T22:07:53.645Z,29.43
2018-12-29T22:10:21.974Z,28.47
2018-12-29T22:12:55.612Z,28.20
2018-12-29T22:15:24.984Z,31.20
2018-12-29T22:17:54.295Z,31.60
2018-12-29T22:20:23.248Z,31.43
2018-12-29T22:22:51.545Z,32.83
2018-12-29T22:25:19.929Z,27.73
2018-12-29T22:27:48.440Z,27.33
2018-12-29T22:30:17.927Z,29.23
2018-12-29T22:32:46.409Z,34.37
2018-12-29T22:35:15.375Z,33.33
2018-12-29T22:37:44.979Z,32.20
2018-12-29T22:40:13.679Z,31.73
2018-12-29T22:42:42.382Z,33.37
2018-12-29T22:45:11.462Z,31.00
2018-12-29T22:47:39.930Z,29.17
2018-12-29T22:50:08.457Z,30.60
2018-12-29T22:52:37.093Z,31.37
2018-12-29T22:55:05.575Z,32.87
2018-12-29T22:57:34.288Z,29.23
2018-12-29T23:00:04.497Z,28.43
2018-12-29T23:02:32.969Z,27.53
2018-12-29T23:05:02.184Z,27.53
2018-12-29T23:07:30.635Z,27.50
2018-12-29T23:09:59.022Z,27.63
2018-12-29T23:12:27.615Z,27.20
2018-12-29T23:14:56.486Z,25.97
2018-12-29T23:17:24.969Z,25.27
2018-12-29T23:19:53.281Z,26.17
2018-12-29T23:22:21.954Z,26.30
2018-12-29T23:24:50.626Z,23.80
2018-12-29T23:27:19.317Z,24.80
2018-12-29T23:29:48.081Z,24.13
2018-12-29T23:32:16.690Z,24.53
2018-12-29T23:34:45.065Z,24.33
2018-12-29T23:37:13.553Z,26.30
2018-12-29T23:39:42.266Z,26.07
2018-12-29T23:42:10.708Z,22.73
2018-12-29T23:44:39.274Z,25.30
2018-12-29T23:47:07.967Z,26.67
2018-12-29T23:49:36.676Z,26.20
2018-12-29T23:52:05.560Z,25.07
2018-12-29T23:54:33.905Z,26.40
2018-12-29T23:57:08.183Z,23.03
2018-12-29T23:59:36.406Z,22.77
